Latest Weather Observations for Croker Island Airport

IDD60801

Issued at 7:01 pm CST Tuesday 28 June 2016 (issued every 30 minutes, with the page automatically refreshed every 10 minutes)

About weather observations | Map of weather stations | Latest weather observations for NT | Other Formats
Station Details ID: 014308 Name: CROKER ISLAND AIRPORT Lat: -11.16 Lon: 132.48 Height: 9.2 m
Data from the previous 72 hours. | See also: Recent months at Croker Island Airport
Date/Time
CST
Temp
°C
App
Temp
°C
Dew
Point
°C
Rel
Hum
%
Delta-T
°C
Wind Press
QNH
hPa
Press
MSL
hPa
Rain since
9am
mm
Dir  Spd
km/h
Gust
km/h
Spd
kts
Gust
kts
28/07:00pm 27.3 29.5 21.8 72 3.7 E 13 20 7 11 1012.9 1012.8 0.0
28/06:30pm 27.7 29.4 21.7 70 4.0 E 15 22 8 12 1012.7 1012.6 0.0
28/06:00pm 28.4 29.4 21.7 67 4.5 E 19 28 10 15 1012.3 1012.2 0.0
28/05:30pm 29.0 29.8 21.7 64 4.9 E 20 33 11 18 1011.9 1011.8 0.0
28/05:00pm 29.9 30.1 22.1 63 5.3 E 24 37 13 20 1011.6 1011.5 0.0
28/04:30pm 30.3 30.4 21.9 60 5.7 E 24 35 13 19 1011.4 1011.3 0.0
28/04:00pm 30.5 30.3 22.1 61 5.7 E 26 39 14 21 1011.6 1011.5 0.0
28/03:45pm 30.3 29.7 21.9 60 5.7 E 28 50 15 27 1011.6 1011.5 0.0
28/03:30pm 30.2 28.9 22.1 62 5.5 E 32 44 17 24 1011.6 1011.5 0.0
28/03:00pm 30.4 29.4 22.6 63 5.3 E 32 50 17 27 1011.6 1011.5 0.0
28/02:33pm 30.2 29.8 22.4 63 5.3 E 28 48 15 26 1011.8 1011.7 0.0
28/02:30pm 30.7 30.7 23.1 64 5.2 E 28 44 15 24 1011.8 1011.7 0.0
28/02:12pm 29.7 28.9 22.4 65 5.0 ESE 30 50 16 27 1012.0 1011.9 0.0
28/02:00pm 29.8 29.5 22.5 65 5.0 ESE 28 44 15 24 1012.3 1012.2 0.0
28/01:30pm 30.1 29.2 22.8 65 5.0 E 32 44 17 24 1012.7 1012.6 0.0
28/01:00pm 30.3 30.9 23.5 67 4.7 ESE 26 41 14 22 1013.0 1012.9 0.0
28/12:30pm 29.1 29.1 23.1 70 4.1 ESE 28 43 15 23 1013.6 1013.5 0.0
28/12:00pm 29.3 29.9 23.5 71 4.0 ESE 26 43 14 23 1014.0 1013.9 0.0
28/11:30am 29.0 28.7 23.2 71 4.0 ESE 30 44 16 24 1014.2 1014.1 0.0
28/11:00am 28.2 28.1 22.9 73 3.6 ESE 28 46 15 25 1014.5 1014.4 0.0
28/10:35am 28.5 28.6 23.2 73 3.6 ESE 28 46 15 25 1014.7 1014.6 0.0
28/10:30am 28.4 29.2 23.1 73 3.6 ESE 24 41 13 22 1014.7 1014.6 0.0
28/10:00am 28.5 28.8 23.6 75 3.4 ESE 28 44 15 24 1014.5 1014.4 0.0
28/09:30am 27.6 27.8 23.4 78 2.9 ESE 28 43 15 23 1014.4 1014.3 0.0
28/09:00am 27.4 29.5 24.1 82 2.3 ESE 20 33 11 18 1014.3 1014.2 0.0
28/08:30am 26.6 28.4 23.5 83 2.1 ESE 20 33 11 18 1014.2 1014.1 0.0
28/08:00am 26.1 28.4 23.4 85 1.8 ESE 17 28 9 15 1013.9 1013.8 0.0
28/07:30am 26.0 27.7 23.1 84 2.0 ESE 19 28 10 15 1013.5 1013.4 0.0
28/07:00am 26.0 27.6 22.9 83 2.1 ESE 19 33 10 18 1013.2 1013.1 0.0
28/06:30am 25.7 27.9 22.6 83 2.1 ESE 15 24 8 13 1013.1 1013.0 0.0
28/06:00am 25.5 28.1 22.6 84 2.0 ESE 13 22 7 12 1012.7 1012.6 0.0
28/05:30am 25.4 27.9 22.5 84 2.0 ESE 13 19 7 10 1012.4 1012.3 0.0
28/05:00am 25.5 28.4 22.4 83 2.1 SE 11 19 6 10 1012.2 1012.1 0.0
28/04:30am 26.2 28.2 22.9 82 2.2 ESE 17 24 9 13 1012.1 1012.0 0.0
28/04:00am 26.5 28.3 23.2 82 2.2 ESE 19 30 10 16 1012.0 1011.9 0.0
28/03:30am 26.7 28.5 23.2 81 2.4 E 19 30 10 16 1012.2 1012.1 0.0
28/03:00am 26.8 28.6 23.3 81 2.4 E 19 32 10 17 1012.3 1012.2 0.0
28/02:30am 26.7 29.2 23.8 84 2.0 E 17 24 9 13 1012.6 1012.5 0.0
28/02:00am 26.6 29.5 23.9 85 1.9 E 15 24 8 13 1012.8 1012.7 0.0
28/01:30am 26.4 29.9 23.5 84 2.0 E 11 15 6 8 1013.1 1013.0 0.0
28/01:00am 26.4 29.8 23.3 83 2.1 ENE 11 15 6 8 1013.3 1013.2 0.0
28/12:30am 26.3 30.0 23.2 83 2.1 ENE 9 17 5 9 1013.4 1013.3 0.0
28/12:00am 26.3 29.9 23.0 82 2.2 ENE 9 11 5 6 1013.5 1013.4 0.0
 
Date/Time
CST
Temp
°C
App
Temp
°C
Dew
Point
°C
Rel
Hum
%
Delta-T
°C
Wind Press
QNH
hPa
Press
MSL
hPa
Rain since
9am
mm
Dir  Spd
km/h
Gust
km/h
Spd
kts
Gust
kts
27/11:30pm 26.3 29.9 23.0 82 2.2 ENE 9 13 5 7 1013.6 1013.5 0.0
27/11:00pm 26.3 29.8 22.8 81 2.4 ENE 9 15 5 8 1013.7 1013.6 0.0
27/10:30pm 26.5 29.5 22.6 79 2.6 ENE 11 17 6 9 1013.7 1013.6 0.0
27/10:00pm 26.4 29.3 22.5 79 2.6 ENE 11 17 6 9 1013.6 1013.5 0.0
27/09:30pm 26.4 29.2 22.3 78 2.8 ENE 11 15 6 8 1013.5 1013.4 0.0
27/09:00pm 26.5 29.2 22.1 77 3.0 ENE 11 15 6 8 1013.4 1013.3 0.0
27/08:30pm 26.6 29.3 22.2 77 3.0 ENE 11 19 6 10 1013.2 1013.1 0.0
27/08:00pm 26.6 29.1 21.8 75 3.2 ENE 11 19 6 10 1013.0 1012.9 0.0
27/07:30pm 26.9 28.7 21.9 74 3.3 ENE 15 22 8 12 1012.6 1012.5 0.0
27/07:00pm 26.9 28.6 21.6 72 3.5 ENE 15 19 8 10 1012.3 1012.2 0.0
27/06:30pm 27.3 28.8 21.3 69 4.0 ENE 15 28 8 15 1012.0 1011.9 0.0
27/06:00pm 28.0 28.9 22.0 70 4.0 ENE 20 30 11 16 1011.7 1011.6 0.0
27/05:30pm 28.5 29.6 22.3 69 4.2 ENE 20 35 11 19 1011.4 1011.3 0.0
27/05:00pm 29.0 30.2 22.5 68 4.4 E 20 30 11 16 1011.1 1011.0 0.0
27/04:30pm 29.9 31.6 23.1 67 4.7 ENE 19 28 10 15 1010.6 1010.5 0.0
27/04:00pm 30.3 32.0 23.0 65 5.0 E 19 30 10 16 1010.7 1010.6 0.0
27/03:30pm 30.1 30.4 22.3 63 5.3 E 24 37 13 20 1010.6 1010.5 0.0
27/03:00pm 30.5 30.7 22.1 61 5.7 E 24 35 13 19 1010.9 1010.8 0.0
27/02:30pm 30.0 31.3 22.7 65 5.0 E 20 32 11 17 1011.1 1011.0 0.0
27/02:00pm 31.4 33.3 23.8 64 5.3 E 20 32 11 17 1011.3 1011.2 0.0
27/01:30pm 30.7 32.4 23.4 65 5.0 E 20 30 11 16 1011.8 1011.7 0.0
27/01:00pm 29.9 31.7 23.3 67 4.5 ESE 19 30 10 16 1012.2 1012.1 0.0
27/12:30pm 29.9 31.7 23.3 67 4.5 E 19 26 10 14 1012.9 1012.8 0.0
27/12:00pm 30.1 32.6 24.5 72 3.9 E 19 26 10 14 1013.1 1013.0 0.0
27/11:30am 29.3 31.6 24.4 75 3.4 E 20 28 11 15 1013.3 1013.2 0.0
27/11:00am 29.0 31.8 24.3 76 3.3 E 17 26 9 14 1013.5 1013.4 0.0
27/10:30am 30.3 33.8 26.0 78 3.1 E 19 30 10 16 1013.8 1013.7 0.0
27/10:00am 28.6 31.7 25.4 83 2.3 ESE 19 28 10 15 1013.8 1013.7 0.0
27/09:30am 28.6 32.0 25.8 85 2.0 ESE 19 28 10 15 1013.7 1013.6 0.0
27/09:00am 28.0 31.9 26.6 92 1.0 E 19 28 10 15 1013.6 1013.5 0.0
27/08:30am 27.8 33.9 27.6 99 0.1 E 11 20 6 11 1013.4 1013.3 0.0
27/08:00am 26.3 32.3 26.3 100 0.0 E 7 13 4 7 1013.1 1013.0 0.0
27/07:30am 25.7 30.9 25.7 100 0.0 E 9 13 5 7 1012.9 1012.8 0.0
27/07:00am 25.1 30.3 25.1 100 0.0 ESE 7 9 4 5 1012.3 1012.2 0.0
27/06:30am 25.0 30.1 25.0 100 0.0 E 7 9 4 5 1011.9 1011.8 0.0
27/06:00am 24.7 29.8 24.7 100 0.0 ENE 6 7 3 4 1011.8 1011.7 0.0
27/05:30am 24.4 29.3 24.4 100 0.0 ENE 6 6 3 3 1011.7 1011.6 0.0
27/05:00am 24.2 29.0 24.2 100 0.0 E 6 6 3 3 1011.5 1011.4 0.0
27/04:30am 24.3 29.2 24.3 100 0.0 E 6 7 3 4 1011.3 1011.2 0.0
27/04:00am 23.5 28.4 23.0 97 0.3 SE 2 4 1 2 1011.2 1011.1 0.0
27/03:30am 23.3 28.4 22.6 96 0.5 CALM 0 2 0 1 1011.2 1011.1 0.0
27/03:00am 24.2 29.0 23.5 96 0.5 E 4 6 2 3 1011.3 1011.2 0.0
27/02:30am 24.4 28.8 23.5 95 0.6 E 6 7 3 4 1011.5 1011.4 0.0
27/02:00am 24.3 29.0 23.3 94 0.7 ESE 4 6 2 3 1012.0 1011.9 0.0
27/01:30am 23.9 28.8 22.3 91 1.1 CALM 0 0 0 0 1012.1 1012.0 0.0
27/01:00am 24.4 29.6 22.8 91 1.1 CALM 0 0 0 0 1012.3 1012.2 0.0
27/12:30am 25.7 30.5 24.1 91 1.1 NE 6 9 3 5 1012.3 1012.2 0.0
27/12:00am 25.2 29.5 23.3 89 1.3 NE 6 9 3 5 1012.4 1012.3 0.0
 
Date/Time
CST
Temp
°C
App
Temp
°C
Dew
Point
°C
Rel
Hum
%
Delta-T
°C
Wind Press
QNH
hPa
Press
MSL
hPa
Rain since
9am
mm
Dir  Spd
km/h
Gust
km/h
Spd
kts
Gust
kts
26/11:30pm 24.8 28.7 22.5 87 1.5 NE 6 6 3 3 1012.4 1012.3 0.0
26/11:00pm 24.7 28.3 22.0 85 1.8 ENE 6 7 3 4 1012.6 1012.5 0.0
26/10:30pm 24.4 28.0 21.3 83 2.0 ENE 4 4 2 2 1012.9 1012.8 0.0
26/10:00pm 25.3 29.0 22.2 83 2.1 ENE 6 7 3 4 1012.6 1012.5 0.0
26/09:30pm 24.8 28.4 21.3 81 2.3 ENE 4 6 2 3 1012.5 1012.4 0.0
26/09:00pm 25.3 29.1 21.6 80 2.5 E 4 7 2 4 1012.4 1012.3 0.0
26/08:30pm 25.6 29.0 21.7 79 2.6 E 6 6 3 3 1012.1 1012.0 0.0
26/08:00pm 25.8 29.2 21.7 78 2.7 E 6 7 3 4 1011.9 1011.8 0.0
26/07:30pm 26.0 29.1 21.4 76 3.1 ENE 7 9 4 5 1011.7 1011.6 0.0
26/07:00pm 26.5 29.2 21.3 73 3.4 ENE 9 11 5 6 1011.4 1011.3 0.0
26/06:30pm 27.1 29.4 21.4 71 3.8 ENE 11 17 6 9 1011.1 1011.0 0.0
26/06:00pm 28.1 29.7 21.4 67 4.5 ENE 15 22 8 12 1010.8 1010.7 0.0
26/05:30pm 29.5 31.6 21.7 63 5.2 ENE 13 20 7 11 1010.4 1010.3 0.0
26/05:00pm 29.7 31.0 21.6 61 5.4 ENE 17 24 9 13 1010.2 1010.1 0.0
26/04:30pm 29.4 31.3 22.1 65 4.9 ENE 15 20 8 11 1010.2 1010.1 0.0
26/04:00pm 29.7 31.3 22.2 64 5.1 ENE 17 24 9 13 1010.0 1009.9 0.0
26/03:30pm 29.8 31.1 21.7 61 5.5 ENE 17 22 9 12 1010.0 1009.9 0.0
26/03:00pm 32.3 35.1 23.0 58 6.4 E 13 22 7 12 1010.2 1010.1 0.0
26/02:30pm 31.4 33.9 22.4 59 6.1 E 13 22 7 12 1010.6 1010.5 0.0
26/02:00pm 31.0 32.7 22.3 60 5.9 ESE 17 24 9 13 1010.9 1010.8 0.0
26/01:30pm 30.6 32.4 22.5 62 5.5 E 17 26 9 14 1011.2 1011.1 0.0
26/01:00pm 31.0 33.5 23.1 63 5.4 ESE 15 22 8 12 1011.6 1011.5 0.0
26/12:30pm 30.7 33.0 23.4 65 5.0 ESE 17 26 9 14 1011.9 1011.8 0.0
26/12:00pm 30.4 32.7 24.1 69 4.4 E 19 28 10 15 1012.3 1012.2 0.0
26/11:30am 29.2 31.0 23.6 72 3.9 ESE 20 30 11 16 1012.9 1012.8 0.0
26/11:00am 29.8 32.3 24.4 73 3.8 ESE 19 30 10 16 1013.1 1013.0 0.0
26/10:30am 29.1 31.0 23.5 72 3.9 E 19 28 10 15 1013.4 1013.3 0.0
26/10:00am 29.7 32.1 24.3 73 3.8 E 19 26 10 14 1013.3 1013.2 0.0
26/09:30am 28.9 30.7 24.2 76 3.3 E 22 32 12 17 1013.4 1013.3 0.0
26/09:00am 27.9 30.2 24.1 80 2.6 E 19 28 10 15 1013.4 1013.3 0.0
26/08:30am 27.4 30.7 24.5 84 2.0 E 15 20 8 11 1013.3 1013.2 0.0
26/08:00am 26.5 29.9 24.0 86 1.7 E 13 20 7 11 1013.0 1012.9 0.0
26/07:30am 26.0 29.3 23.9 88 1.4 E 13 20 7 11 1012.7 1012.6 0.0
26/07:00am 25.7 29.1 23.4 87 1.6 E 11 17 6 9 1012.5 1012.4 0.0
26/06:30am 26.0 29.2 23.7 87 1.6 ESE 13 22 7 12 1012.2 1012.1 0.0
26/06:00am 26.1 29.2 23.6 86 1.7 E 13 20 7 11 1012.0 1011.9 0.0
26/05:30am 26.2 28.9 23.5 85 1.8 E 15 24 8 13 1011.6 1011.5 0.0
26/05:00am 26.4 29.1 23.5 84 2.0 E 15 24 8 13 1011.3 1011.2 0.0
26/04:30am 26.5 29.2 23.4 83 2.1 E 15 22 8 12 1011.1 1011.0 0.0
26/04:00am 26.5 29.4 23.2 82 2.2 E 13 20 7 11 1011.0 1010.9 0.0
26/03:30am 26.7 29.2 23.2 81 2.4 E 15 22 8 12 1011.0 1010.9 0.0
26/03:00am 26.9 29.4 23.2 80 2.5 E 15 24 8 13 1011.0 1010.9 0.0
26/02:30am 27.2 30.1 23.2 79 2.7 ESE 13 24 7 13 1011.2 1011.1 0.0
26/02:00am 27.7 29.9 23.3 77 3.0 E 17 28 9 15 1011.3 1011.2 0.0
26/01:30am 28.2 30.3 23.8 77 3.0 E 19 32 10 17 1011.5 1011.4 0.0
26/01:00am 28.1 31.5 24.1 79 2.8 E 13 20 7 11 1011.7 1011.6 0.0
26/12:30am 28.1 31.5 24.1 79 2.8 E 13 19 7 10 1011.7 1011.6 0.0
26/12:00am 28.1 31.4 23.9 78 2.9 E 13 20 7 11 1011.7 1011.6 0.0
 
Date/Time
CST
Temp
°C
App
Temp
°C
Dew
Point
°C
Rel
Hum
%
Delta-T
°C
Wind Press
QNH
hPa
Press
MSL
hPa
Rain since
9am
mm
Dir  Spd
km/h
Gust
km/h
Spd
kts
Gust
kts
25/11:30pm 28.1 30.7 23.9 78 2.9 E 17 24 9 13 1011.7 1011.6 0.0
25/11:00pm 27.9 31.2 23.9 79 2.8 ENE 13 20 7 11 1011.8 1011.7 0.0
25/10:30pm 28.0 30.7 24.2 80 2.6 ENE 17 26 9 14 1011.9 1011.8 0.0
25/10:00pm 28.3 30.6 24.1 78 2.9 ENE 19 30 10 16 1012.0 1011.9 0.0
25/09:30pm 28.3 31.7 24.1 78 2.9 ENE 13 22 7 12 1011.8 1011.7 0.0
25/09:00pm 28.2 31.8 23.8 77 3.0 ENE 11 17 6 9 1011.8 1011.7 0.0
25/08:30pm 28.2 31.3 23.6 76 3.2 ENE 13 20 7 11 1011.6 1011.5 0.0
25/08:00pm 28.3 31.6 23.2 74 3.5 E 11 22 6 12 1011.4 1011.3 0.0
25/07:30pm 28.3 31.9 23.0 73 3.6 ENE 9 13 5 7 1011.2 1011.1 0.0

Other Formats:

Comma delimited format used in spreadsheet applications
http://www.bom.gov.au/fwo/IDD60801/IDD60801.94108.axf

JavaScript Object Notation format (JSON) in row-major order
http://www.bom.gov.au/fwo/IDD60801/IDD60801.94108.json